Time;durP1;ratioP1;P1;durP2;ratioP2;P2;SDS_P1;SDS_P2;PMS_P1;PMS_P2;Temp;Humidity;BMP_temperature;BMP_pressure;BME280_temperature;BME280_humidity;BME280_pressure;Samples;Min_cycle;Max_cycle;Signal;HPM_P1;HPM_P2
2023/06/27 00:00:13;;;;;;;17.35;16.25;;;21.30;87.60;;;;;;4994193;28;20051;-73
2023/06/27 00:02:40;;;;;;;18.27;16.92;;;21.20;87.90;;;;;;4995887;28;20038;-73
2023/06/27 00:05:07;;;;;;;18.98;17.73;;;21.10;88.10;;;;;;4994477;28;20391;-73
2023/06/27 00:07:33;;;;;;;18.65;17.15;;;21.20;88.00;;;;;;5010861;28;20543;-73
2023/06/27 00:09:59;;;;;;;18.70;17.17;;;21.20;88.00;;;;;;4995905;28;20042;-73
2023/06/27 00:12:25;;;;;;;18.83;17.02;;;21.20;88.50;;;;;;4995539;28;20022;-72
2023/06/27 00:14:54;;;;;;;18.67;17.35;;;21.10;88.50;;;;;;4995885;28;20498;-73
2023/06/27 00:17:22;;;;;;;17.98;16.70;;;21.00;88.50;;;;;;5009727;28;20042;-73
2023/06/27 00:19:49;;;;;;;17.75;16.27;;;21.00;88.80;;;;;;4995297;28;20053;-73
2023/06/27 00:22:16;;;;;;;17.38;16.08;;;21.00;89.00;;;;;;5010670;28;20034;-73
2023/06/27 00:24:42;;;;;;;17.17;15.82;;;21.00;89.10;;;;;;4995621;28;20026;-73
2023/06/27 00:27:08;;;;;;;16.55;15.23;;;20.80;89.30;;;;;;4993909;28;20049;-73
2023/06/27 00:29:34;;;;;;;16.35;14.95;;;20.80;89.70;;;;;;4995552;28;20037;-73
2023/06/27 00:32:00;;;;;;;16.02;14.70;;;20.80;89.90;;;;;;5009753;28;20043;-73
2023/06/27 00:34:26;;;;;;;14.77;13.68;;;20.70;90.10;;;;;;4995162;28;20031;-73
2023/06/27 00:36:53;;;;;;;14.90;13.45;;;20.60;90.30;;;;;;5009158;28;20054;-73
2023/06/27 00:39:19;;;;;;;14.57;13.13;;;20.50;90.50;;;;;;4995364;28;20014;-73
2023/06/27 00:41:45;;;;;;;14.38;13.05;;;20.40;90.70;;;;;;4995035;28;20037;-74
2023/06/27 00:44:11;;;;;;;13.77;12.48;;;20.30;90.90;;;;;;4995298;28;20030;-73
2023/06/27 00:46:38;;;;;;;14.82;13.13;;;20.40;90.90;;;;;;4993078;28;20049;-73
2023/06/27 00:49:09;;;;;;;14.10;12.95;;;20.40;91.10;;;;;;4997264;28;20534;-73
2023/06/27 00:51:35;;;;;;;13.93;12.63;;;20.30;91.20;;;;;;4993668;28;20049;-73
2023/06/27 00:54:01;;;;;;;14.98;13.45;;;20.40;91.20;;;;;;4995118;28;20440;-73
2023/06/27 00:56:27;;;;;;;14.90;13.45;;;20.40;91.40;;;;;;5009888;28;20045;-73
2023/06/27 00:58:54;;;;;;;14.82;13.38;;;20.30;91.50;;;;;;5010180;28;20396;-73
2023/06/27 01:01:20;;;;;;;15.23;13.77;;;20.20;91.80;;;;;;5009086;28;20041;-73
2023/06/27 01:03:47;;;;;;;15.15;13.82;;;20.10;92.00;;;;;;4994858;28;20460;-73
2023/06/27 01:06:18;;;;;;;14.70;13.27;;;20.20;91.90;;;;;;4994699;28;20387;-73
2023/06/27 01:09:00;;;;;;;;;;;20.20;91.90;;;;;;5010537;28;20022;-73
2023/06/27 01:11:29;;;;;;;14.93;13.52;;;20.20;91.90;;;;;;4994538;28;19909;-73
2023/06/27 01:13:56;;;;;;;15.93;14.32;;;20.20;92.00;;;;;;5009806;28;20041;-73
2023/06/27 01:16:24;;;;;;;15.25;13.82;;;19.90;92.60;;;;;;5008572;28;20030;-72
2023/06/27 01:18:50;;;;;;;15.55;14.18;;;19.80;92.80;;;;;;5009753;28;20026;-73
2023/06/27 01:21:20;;;;;;;14.57;13.50;;;19.80;93.00;;;;;;5009329;28;20034;-73
2023/06/27 01:23:58;;;;;;;13.48;12.27;;;19.80;93.20;;;;;;5009746;28;20030;-72
2023/06/27 01:26:24;;;;;;;13.75;11.68;;;19.70;93.40;;;;;;5008799;28;20038;-73
2023/06/27 01:28:50;;;;;;;12.45;11.25;;;19.60;93.60;;;;;;5009777;28;20361;-73
2023/06/27 01:31:26;;;;;;;13.30;10.80;;;19.60;93.60;;;;;;4993423;28;20037;-74
2023/06/27 01:34:06;;;;;;;11.27;10.48;;;19.50;93.90;;;;;;5009058;28;20415;-73
2023/06/27 01:36:42;;;;;;;11.10;10.05;;;19.50;93.90;;;;;;5008498;28;20034;-73
2023/06/27 01:39:13;;;;;;;11.35;10.02;;;19.50;93.90;;;;;;4994297;28;20022;-73
2023/06/27 01:41:40;;;;;;;12.02;9.40;;;19.50;94.00;;;;;;5009207;28;20034;-72
2023/06/27 01:44:06;;;;;;;10.57;9.57;;;19.40;94.30;;;;;;5009153;28;20030;-74
2023/06/27 01:46:32;;;;;;;10.50;9.55;;;19.30;94.50;;;;;;5008051;28;20046;-73
2023/06/27 01:48:59;;;;;;;10.38;9.48;;;19.40;94.40;;;;;;4993845;28;20034;-72
2023/06/27 01:51:25;;;;;;;11.57;10.23;;;19.50;94.50;;;;;;4992437;28;20038;-73
2023/06/27 01:53:51;;;;;;;11.73;10.52;;;19.50;94.30;;;;;;4993875;28;20039;-73
2023/06/27 01:56:17;;;;;;;11.45;10.23;;;19.60;94.20;;;;;;4993573;28;20045;-73
2023/06/27 01:58:43;;;;;;;11.23;9.98;;;19.60;94.30;;;;;;4993506;28;20034;-73
2023/06/27 02:01:10;;;;;;;11.70;10.10;;;19.50;94.50;;;;;;4990821;28;20041;-73
2023/06/27 02:03:36;;;;;;;10.52;9.63;;;19.30;94.80;;;;;;4988256;28;20026;-73
2023/06/27 02:06:02;;;;;;;15.13;10.05;;;19.30;94.90;;;;;;4988517;28;20033;-73
2023/06/27 02:08:28;;;;;;;10.70;9.60;;;19.20;95.00;;;;;;4992255;28;20053;-73
2023/06/27 02:10:54;;;;;;;10.68;9.73;;;19.30;95.10;;;;;;4992205;28;20035;-73
2023/06/27 02:13:20;;;;;;;14.02;11.38;;;19.40;94.90;;;;;;5007445;28;20034;-73
2023/06/27 02:15:46;;;;;;;13.07;10.15;;;19.40;95.10;;;;;;4991206;28;20038;-73
2023/06/27 02:18:13;;;;;;;10.55;9.52;;;19.40;95.10;;;;;;4992238;28;20038;-73
2023/06/27 02:20:39;;;;;;;10.65;9.70;;;19.40;95.10;;;;;;4992033;28;20038;-73
2023/06/27 02:23:05;;;;;;;11.43;9.52;;;19.30;95.30;;;;;;4991946;28;20506;-73
2023/06/27 02:25:31;;;;;;;11.55;10.45;;;19.30;95.50;;;;;;4991901;28;20029;-73
2023/06/27 02:27:57;;;;;;;12.05;10.75;;;19.30;95.60;;;;;;4992098;28;20380;-73
2023/06/27 02:30:23;;;;;;;12.82;10.63;;;19.20;95.60;;;;;;4991199;28;20034;-73
2023/06/27 02:32:49;;;;;;;14.30;10.55;;;19.10;95.90;;;;;;4992122;28;20388;-74
2023/06/27 02:35:16;;;;;;;12.77;10.18;;;19.10;96.00;;;;;;4991708;28;20030;-73
2023/06/27 02:37:42;;;;;;;13.27;11.00;;;19.10;96.00;;;;;;4993075;28;20104;-73
2023/06/27 02:40:09;;;;;;;12.82;10.88;;;19.10;96.10;;;;;;4992706;28;20368;-74
2023/06/27 02:42:35;;;;;;;13.23;11.45;;;19.20;96.10;;;;;;4973573;28;20037;-73
2023/06/27 02:45:01;;;;;;;12.10;10.93;;;19.10;96.30;;;;;;4973439;28;20444;-73
2023/06/27 02:47:27;;;;;;;12.18;10.93;;;19.10;96.40;;;;;;4991484;28;20035;-76
2023/06/27 02:49:54;;;;;;;13.18;10.57;;;19.00;96.60;;;;;;4992980;28;20042;-73
2023/06/27 02:52:20;;;;;;;11.18;10.18;;;18.90;96.80;;;;;;4992657;28;20475;-72
2023/06/27 02:54:46;;;;;;;12.57;11.30;;;18.80;97.10;;;;;;4993059;28;20050;-75
2023/06/27 02:57:12;;;;;;;12.95;10.50;;;18.90;97.20;;;;;;4992349;28;20038;-75
2023/06/27 02:59:38;;;;;;;12.15;10.93;;;18.80;97.30;;;;;;4992576;28;20029;-73
2023/06/27 03:02:04;;;;;;;12.32;11.13;;;18.80;97.60;;;;;;5007379;28;20042;-75
2023/06/27 03:04:30;;;;;;;12.05;11.07;;;18.60;97.90;;;;;;4992791;28;20034;-73
2023/06/27 03:06:56;;;;;;;12.13;10.75;;;18.60;97.90;;;;;;5007770;28;20049;-73
2023/06/27 03:09:22;;;;;;;11.50;10.38;;;18.60;98.10;;;;;;4992851;28;20022;-72
2023/06/27 03:11:48;;;;;;;12.02;10.27;;;18.50;98.40;;;;;;4990887;28;20038;-72
2023/06/27 03:14:18;;;;;;;12.50;10.25;;;18.50;98.50;;;;;;4992929;28;20361;-72
2023/06/27 03:16:44;;;;;;;10.48;9.57;;;18.50;98.60;;;;;;4991919;28;20050;-73
2023/06/27 03:19:11;;;;;;;12.35;10.07;;;18.70;98.50;;;;;;5007919;28;20030;-73
2023/06/27 03:21:37;;;;;;;11.85;10.23;;;18.60;98.50;;;;;;5007736;28;20038;-72
2023/06/27 03:24:04;;;;;;;11.30;10.23;;;18.60;98.60;;;;;;5007751;28;20030;-73
2023/06/27 03:26:30;;;;;;;12.73;10.40;;;18.40;99.00;;;;;;4990312;28;20039;-73
2023/06/27 03:28:56;;;;;;;11.05;9.82;;;18.40;99.00;;;;;;4992697;28;20033;-73
2023/06/27 03:31:22;;;;;;;11.50;10.30;;;18.40;99.10;;;;;;5001669;28;20039;-73
2023/06/27 03:33:48;;;;;;;10.95;9.95;;;18.40;99.20;;;;;;5012196;28;20474;-73
2023/06/27 03:36:15;;;;;;;12.10;10.25;;;18.30;99.40;;;;;;5011836;28;20038;-73
2023/06/27 03:38:41;;;;;;;11.55;10.23;;;18.30;99.60;;;;;;5013218;28;20038;-72
2023/06/27 03:41:07;;;;;;;10.73;9.70;;;18.20;99.70;;;;;;5021593;28;20367;-72
2023/06/27 03:43:33;;;;;;;11.35;10.15;;;18.20;99.60;;;;;;5012179;28;20037;-73
2023/06/27 03:45:59;;;;;;;11.55;9.77;;;18.30;99.60;;;;;;5011562;28;20038;-73
2023/06/27 03:48:25;;;;;;;11.98;10.93;;;18.50;99.50;;;;;;4994640;28;20041;-73
2023/06/27 03:50:51;;;;;;;13.63;10.38;;;18.40;99.50;;;;;;5027179;28;20045;-73
2023/06/27 03:53:17;;;;;;;12.13;9.73;;;18.40;99.60;;;;;;4994587;28;20018;-72
2023/06/27 03:55:43;;;;;;;10.70;9.30;;;18.30;99.70;;;;;;5011361;28;20403;-73
2023/06/27 03:58:09;;;;;;;9.77;8.77;;;18.10;99.90;;;;;;5011949;28;20038;-73
2023/06/27 04:00:36;;;;;;;11.45;10.10;;;18.10;99.90;;;;;;5010253;28;20030;-73
2023/06/27 04:03:02;;;;;;;11.35;10.50;;;18.00;99.90;;;;;;4994804;28;20041;-72
2023/06/27 04:05:29;;;;;;;11.75;10.70;;;17.90;99.90;;;;;;5011818;28;20018;-73
2023/06/27 04:07:55;;;;;;;12.85;11.73;;;18.00;99.90;;;;;;5011992;28;20395;-73
2023/06/27 04:10:21;;;;;;;13.00;11.90;;;18.00;99.90;;;;;;5011601;28;20030;-72
2023/06/27 04:12:47;;;;;;;14.80;13.30;;;18.00;99.90;;;;;;5014296;28;20379;-73
2023/06/27 04:15:13;;;;;;;15.90;14.57;;;17.90;99.90;;;;;;5014808;28;20033;-73
2023/06/27 04:17:40;;;;;;;16.55;14.93;;;18.00;99.90;;;;;;5015382;28;20446;-72
2023/06/27 04:20:07;;;;;;;15.95;14.35;;;18.20;99.90;;;;;;5015443;28;20391;-73
2023/06/27 04:22:33;;;;;;;17.90;16.13;;;18.20;99.90;;;;;;5013975;28;20034;-73
2023/06/27 04:24:59;;;;;;;16.15;14.73;;;18.10;99.90;;;;;;5014824;28;20022;-72
2023/06/27 04:27:25;;;;;;;16.75;12.98;;;18.00;99.90;;;;;;5014980;28;20041;-73
2023/06/27 04:29:51;;;;;;;12.95;11.88;;;17.90;99.90;;;;;;5015226;28;20033;-73
2023/06/27 04:32:17;;;;;;;15.50;10.80;;;17.80;99.90;;;;;;5014500;28;20034;-73
2023/06/27 04:34:43;;;;;;;13.45;10.77;;;17.80;99.90;;;;;;5015085;28;20026;-72
2023/06/27 04:37:09;;;;;;;12.07;10.52;;;17.80;99.90;;;;;;5014667;28;20056;-72
2023/06/27 04:39:36;;;;;;;14.23;10.95;;;17.70;99.90;;;;;;5023028;28;20466;-73
2023/06/27 04:42:02;;;;;;;17.95;10.50;;;17.70;99.90;;;;;;5017974;28;20049;-72
2023/06/27 04:44:28;;;;;;;11.60;10.48;;;17.70;99.90;;;;;;5013849;28;20022;-75
2023/06/27 04:46:54;;;;;;;14.20;9.60;;;17.80;99.90;;;;;;5014221;28;20037;-75
2023/06/27 04:49:20;;;;;;;14.73;9.20;;;18.00;99.90;;;;;;5014954;28;20065;-75
2023/06/27 04:51:46;;;;;;;10.07;9.02;;;18.00;99.90;;;;;;5014458;28;20037;-75
2023/06/27 04:54:12;;;;;;;10.35;9.35;;;18.00;99.90;;;;;;5014498;28;20030;-75
2023/06/27 04:56:39;;;;;;;12.52;9.25;;;18.00;99.90;;;;;;5013125;28;20041;-74
2023/06/27 04:59:05;;;;;;;11.13;8.73;;;17.80;99.90;;;;;;5013443;28;20038;-74
2023/06/27 05:01:31;;;;;;;11.02;8.65;;;17.70;99.90;;;;;;5001792;28;20038;-75
2023/06/27 05:04:04;;;;;;;11.18;9.02;;;17.70;99.90;;;;;;4995029;28;20046;-75
2023/06/27 05:06:33;;;;;;;13.05;8.75;;;17.80;99.90;;;;;;5008969;28;20031;-75
2023/06/27 05:09:01;;;;;;;12.68;9.50;;;18.00;99.90;;;;;;4994631;28;20030;-74
2023/06/27 05:11:27;;;;;;;10.55;9.13;;;18.10;99.90;;;;;;5009393;28;20030;-75
2023/06/27 05:13:53;;;;;;;10.18;9.10;;;18.30;99.90;;;;;;5009741;28;20031;-75
2023/06/27 05:16:20;;;;;;;10.02;9.02;;;18.40;99.90;;;;;;4994083;28;20495;-74
2023/06/27 05:18:46;;;;;;;12.93;9.43;;;18.30;99.90;;;;;;4994623;28;20054;-75
2023/06/27 05:21:12;;;;;;;14.60;9.82;;;18.30;99.90;;;;;;4994452;28;20043;-75
2023/06/27 05:23:38;;;;;;;16.38;9.70;;;18.20;99.90;;;;;;4993995;28;20026;-75
2023/06/27 05:26:04;;;;;;;10.88;9.77;;;18.10;99.90;;;;;;5009444;28;20035;-75
2023/06/27 05:28:30;;;;;;;10.98;9.98;;;18.10;99.90;;;;;;5009580;28;20037;-76
2023/06/27 05:30:57;;;;;;;10.57;9.52;;;18.20;99.90;;;;;;5000120;28;20049;-75
2023/06/27 05:33:23;;;;;;;12.25;9.48;;;18.20;99.90;;;;;;5012830;28;20030;-75
2023/06/27 05:35:49;;;;;;;10.88;9.80;;;18.20;99.90;;;;;;5012376;28;20494;-75
2023/06/27 05:38:15;;;;;;;10.77;9.43;;;18.10;99.90;;;;;;5013509;28;20046;-75
2023/06/27 05:40:41;;;;;;;14.18;9.02;;;18.20;99.90;;;;;;5026680;28;20030;-75
2023/06/27 05:43:08;;;;;;;10.30;9.15;;;18.30;99.90;;;;;;5013980;28;20038;-75
2023/06/27 05:45:34;;;;;;;12.13;8.88;;;18.30;99.90;;;;;;5007777;28;20053;-75
2023/06/27 05:48:00;;;;;;;18.52;8.55;;;18.30;99.90;;;;;;5009147;28;20030;-75
2023/06/27 05:50:27;;;;;;;13.70;7.90;;;18.20;99.90;;;;;;4992517;28;20514;-75
2023/06/27 05:52:53;;;;;;;11.10;7.80;;;18.20;99.90;;;;;;4993676;28;20056;-75
2023/06/27 05:55:19;;;;;;;13.02;7.53;;;18.40;99.90;;;;;;5008924;28;20038;-75
2023/06/27 05:57:45;;;;;;;11.05;7.80;;;18.50;99.90;;;;;;4992936;28;20093;-75
2023/06/27 06:00:13;;;;;;;11.93;8.77;;;18.60;99.90;;;;;;4993169;28;20038;-75
2023/06/27 06:02:41;;;;;;;12.45;11.15;;;18.60;99.90;;;;;;5008712;28;20045;-75
2023/06/27 06:05:09;;;;;;;13.30;10.82;;;18.60;99.90;;;;;;5009000;28;20059;-75
2023/06/27 06:07:35;;;;;;;11.40;10.00;;;18.80;99.90;;;;;;4993527;28;20034;-75
2023/06/27 06:10:02;;;;;;;14.35;12.95;;;19.00;99.90;;;;;;4993826;28;20037;-75
2023/06/27 06:12:28;;;;;;;8.77;8.07;;;19.20;99.70;;;;;;5008494;28;20033;-74
2023/06/27 06:14:54;;;;;;;11.18;8.32;;;19.30;99.10;;;;;;5008894;28;20031;-75
2023/06/27 06:17:20;;;;;;;12.30;8.35;;;19.30;99.20;;;;;;4992697;28;20050;-75
2023/06/27 06:19:46;;;;;;;9.43;8.60;;;19.30;98.90;;;;;;4993523;28;20038;-74
2023/06/27 06:22:12;;;;;;;10.45;8.60;;;19.30;98.70;;;;;;4992940;28;20034;-75
2023/06/27 06:24:38;;;;;;;12.65;8.40;;;19.10;99.00;;;;;;5008692;28;20041;-75
2023/06/27 06:27:05;;;;;;;10.50;8.60;;;19.00;99.30;;;;;;5008345;28;20030;-75
2023/06/27 06:29:31;;;;;;;13.23;8.68;;;19.20;99.10;;;;;;4993285;28;20045;-75
2023/06/27 06:31:57;;;;;;;14.25;8.65;;;19.20;99.00;;;;;;4992832;28;20403;-75
2023/06/27 06:34:23;;;;;;;11.02;8.48;;;19.30;98.90;;;;;;4992495;28;20037;-75
2023/06/27 06:36:49;;;;;;;12.43;9.13;;;19.30;98.90;;;;;;4992749;28;20039;-75
2023/06/27 06:39:15;;;;;;;10.55;9.23;;;19.40;99.50;;;;;;4993084;28;20098;-75
2023/06/27 06:41:41;;;;;;;12.23;9.60;;;19.70;98.60;;;;;;4991676;28;20407;-75
2023/06/27 06:44:07;;;;;;;12.75;9.80;;;19.70;98.00;;;;;;5008369;28;20034;-75
2023/06/27 06:46:35;;;;;;;11.50;10.00;;;19.70;98.40;;;;;;4992388;28;20042;-75
2023/06/27 06:49:01;;;;;;;10.50;9.63;;;19.80;98.20;;;;;;4992995;28;20053;-75
2023/06/27 06:51:27;;;;;;;11.77;10.18;;;19.80;98.30;;;;;;4992444;28;20040;-75
2023/06/27 06:53:53;;;;;;;13.02;11.25;;;19.80;98.50;;;;;;5008175;28;20026;-75
2023/06/27 06:56:19;;;;;;;11.77;10.85;;;20.00;98.40;;;;;;5007711;28;20033;-74
2023/06/27 06:58:45;;;;;;;12.30;11.20;;;20.20;98.40;;;;;;5008144;28;20042;-75
2023/06/27 07:01:11;;;;;;;12.75;11.48;;;20.20;98.00;;;;;;5007505;28;20030;-75
2023/06/27 07:03:37;;;;;;;16.25;12.80;;;20.20;98.20;;;;;;4992888;28;20026;-75
2023/06/27 07:06:03;;;;;;;13.20;12.07;;;20.10;98.50;;;;;;4992399;28;20030;-75
2023/06/27 07:08:30;;;;;;;14.13;12.70;;;20.30;98.70;;;;;;5008016;28;20030;-75
2023/06/27 07:10:56;;;;;;;15.32;13.60;;;20.40;98.40;;;;;;5007629;28;20034;-75
2023/06/27 07:13:22;;;;;;;15.27;13.98;;;20.30;98.80;;;;;;4992675;28;20037;-75
2023/06/27 07:15:48;;;;;;;17.48;16.08;;;20.50;98.40;;;;;;4992150;28;20034;-75
2023/06/27 07:18:14;;;;;;;19.17;17.67;;;20.60;98.30;;;;;;4992498;28;20049;-74
2023/06/27 07:20:40;;;;;;;19.27;17.55;;;21.00;98.20;;;;;;5007562;28;20495;-75
2023/06/27 07:23:07;;;;;;;19.35;17.65;;;21.10;97.60;;;;;;5008255;28;20043;-75
2023/06/27 07:25:33;;;;;;;20.17;18.67;;;21.20;97.10;;;;;;5006911;28;20399;-75
2023/06/27 07:27:59;;;;;;;22.10;20.27;;;21.20;97.20;;;;;;4992657;28;20034;-75
2023/06/27 07:30:25;;;;;;;21.45;19.65;;;21.20;97.20;;;;;;4992007;28;20026;-75
2023/06/27 07:32:51;;;;;;;21.30;19.48;;;21.30;97.40;;;;;;4992556;28;20030;-75
2023/06/27 07:35:17;;;;;;;20.58;19.00;;;21.40;96.90;;;;;;4992352;28;20034;-75
2023/06/27 07:37:43;;;;;;;23.23;21.05;;;21.50;96.80;;;;;;4992419;28;20049;-75
2023/06/27 07:40:10;;;;;;;22.35;20.40;;;21.70;96.90;;;;;;4992419;28;20026;-75
2023/06/27 07:42:36;;;;;;;23.80;21.95;;;21.60;96.70;;;;;;4987624;28;20042;-75
2023/06/27 07:45:02;;;;;;;24.50;22.38;;;21.60;96.80;;;;;;4973186;28;20353;-75
2023/06/27 07:47:28;;;;;;;27.42;24.73;;;21.60;96.70;;;;;;4992561;28;20125;-75
2023/06/27 07:49:54;;;;;;;23.00;21.15;;;21.70;97.70;;;;;;4978768;28;20042;-75
2023/06/27 07:52:20;;;;;;;22.20;20.05;;;22.00;96.70;;;;;;4994800;28;20506;-75
2023/06/27 07:54:46;;;;;;;22.02;19.98;;;22.30;95.90;;;;;;4996223;28;20034;-75
2023/06/27 07:57:12;;;;;;;23.13;21.10;;;22.40;95.80;;;;;;5010886;28;20395;-75
2023/06/27 07:59:38;;;;;;;24.48;22.67;;;22.60;95.40;;;;;;4996083;28;20117;-74
2023/06/27 08:02:05;;;;;;;25.10;23.15;;;22.60;95.20;;;;;;4995034;28;20034;-75
2023/06/27 08:04:32;;;;;;;26.73;24.63;;;22.70;95.60;;;;;;4994526;28;20061;-75
2023/06/27 08:06:58;;;;;;;28.13;25.33;;;22.90;95.50;;;;;;4995789;28;20039;-75
2023/06/27 08:09:24;;;;;;;28.70;26.52;;;23.10;95.10;;;;;;5011191;28;20494;-75
2023/06/27 08:11:51;;;;;;;28.35;26.35;;;22.90;94.80;;;;;;4995601;28;20043;-75
2023/06/27 08:14:17;;;;;;;28.27;26.08;;;23.00;95.40;;;;;;4995832;28;20046;-75
2023/06/27 08:16:43;;;;;;;24.80;22.83;;;23.00;95.00;;;;;;5009746;28;20041;-75
2023/06/27 08:19:09;;;;;;;28.23;26.20;;;23.20;94.40;;;;;;5010813;28;20042;-75
2023/06/27 08:21:36;;;;;;;27.88;25.60;;;23.40;95.00;;;;;;4995656;28;20041;-75
2023/06/27 08:24:02;;;;;;;28.33;26.35;;;23.70;95.20;;;;;;5010413;28;20057;-75
2023/06/27 08:26:28;;;;;;;28.98;26.77;;;23.80;93.60;;;;;;4995265;28;20026;-75
2023/06/27 08:28:54;;;;;;;29.15;27.15;;;23.80;93.60;;;;;;5010925;28;20360;-75
2023/06/27 08:31:20;;;;;;;29.08;26.98;;;23.80;93.40;;;;;;5009559;28;20038;-75
2023/06/27 08:33:46;;;;;;;28.23;26.02;;;23.80;93.90;;;;;;4995469;28;20034;-75
2023/06/27 08:36:12;;;;;;;29.83;27.25;;;23.80;94.00;;;;;;4995072;28;20490;-75
2023/06/27 08:38:38;;;;;;;30.95;28.73;;;23.90;94.10;;;;;;4995202;28;20050;-75
2023/06/27 08:41:05;;;;;;;28.55;26.30;;;23.80;94.20;;;;;;4995143;28;20033;-75
2023/06/27 08:43:31;;;;;;;29.83;27.90;;;24.00;94.80;;;;;;4995328;28;20026;-75
2023/06/27 08:45:59;;;;;;;29.95;27.85;;;24.30;95.10;;;;;;5009212;28;20043;-75
2023/06/27 08:48:25;;;;;;;29.13;27.02;;;24.60;93.40;;;;;;4995013;28;20037;-75
2023/06/27 08:50:53;;;;;;;28.35;26.45;;;24.80;93.60;;;;;;4995012;28;20042;-75
2023/06/27 08:53:21;;;;;;;30.42;28.25;;;25.00;92.10;;;;;;5010312;28;20034;-75
2023/06/27 08:56:09;;;;;;;30.40;28.40;;;24.90;91.60;;;;;;4994896;28;20399;-75
2023/06/27 08:58:51;;;;;;;30.50;28.35;;;24.60;91.60;;;;;;5009007;28;20038;-75
2023/06/27 09:01:17;;;;;;;29.83;27.52;;;24.50;91.90;;;;;;4993958;28;20398;-75
2023/06/27 09:03:44;;;;;;;29.77;27.63;;;24.70;92.40;;;;;;5010146;28;20496;-75
2023/06/27 09:06:10;;;;;;;27.88;26.00;;;24.90;93.20;;;;;;4994593;28;20034;-75
2023/06/27 09:08:36;;;;;;;28.13;26.08;;;25.10;92.40;;;;;;5009755;28;20038;-75
2023/06/27 09:11:08;;;;;;;25.63;23.58;;;25.20;91.70;;;;;;5009732;28;20038;-75
2023/06/27 09:13:34;;;;;;;26.70;25.10;;;25.20;92.00;;;;;;4994924;28;20026;-75
2023/06/27 09:16:00;;;;;;;25.95;24.05;;;25.20;91.50;;;;;;5008753;28;20491;-75
2023/06/27 09:18:26;;;;;;;26.30;24.60;;;25.30;91.70;;;;;;5009816;28;20046;-75
2023/06/27 09:20:54;;;;;;;29.70;27.70;;;25.50;91.90;;;;;;4994643;28;20392;-75
2023/06/27 09:23:20;;;;;;;29.58;27.63;;;25.60;90.90;;;;;;5009739;28;20042;-75
2023/06/27 09:26:04;;;;;;;29.15;27.30;;;25.20;91.00;;;;;;5009424;28;20408;-75
2023/06/27 09:28:30;;;;;;;28.63;26.50;;;24.80;90.80;;;;;;5007452;28;20031;-75
2023/06/27 09:30:57;;;;;;;30.73;28.65;;;24.60;90.80;;;;;;4993453;28;20057;-75
2023/06/27 09:33:23;;;;;;;28.70;26.63;;;24.70;90.90;;;;;;5009651;28;20407;-75
2023/06/27 09:35:50;;;;;;;28.10;25.95;;;24.70;90.80;;;;;;5009046;28;20026;-75
2023/06/27 09:38:16;;;;;;;27.15;25.45;;;24.70;91.30;;;;;;5009403;28;20030;-75
2023/06/27 09:40:43;;;;;;;30.95;28.67;;;24.90;92.40;;;;;;4993599;28;20042;-75
2023/06/27 09:43:11;;;;;;;33.55;31.35;;;24.90;90.50;;;;;;4994391;28;20325;-75
2023/06/27 09:45:37;;;;;;;27.52;25.60;;;24.70;90.40;;;;;;4993171;28;20042;-75
2023/06/27 09:48:03;;;;;;;32.40;30.50;;;24.90;91.30;;;;;;5009270;28;20066;-76
2023/06/27 09:50:32;;;;;;;33.40;31.17;;;24.90;90.10;;;;;;4992953;28;20396;-75
2023/06/27 09:52:59;;;;;;;31.20;29.10;;;25.10;90.50;;;;;;4994082;28;20053;-75
2023/06/27 09:55:25;;;;;;;29.85;27.52;;;25.20;90.90;;;;;;5008655;28;20026;-75
2023/06/27 09:57:52;;;;;;;29.85;27.67;;;25.40;90.90;;;;;;4993638;28;20595;-75
2023/06/27 10:00:22;;;;;;;32.83;30.52;;;25.50;90.80;;;;;;4992119;28;20538;-76
2023/06/27 10:02:49;;;;;;;27.35;25.25;;;25.60;90.30;;;;;;5008446;28;20388;-75
2023/06/27 10:05:19;;;;;;;35.83;33.38;;;25.70;91.40;;;;;;5008413;28;20046;-75
2023/06/27 10:07:47;;;;;;;43.60;41.05;;;25.80;89.90;;;;;;5008493;28;20050;-75
2023/06/27 10:10:13;;;;;;;31.73;29.52;;;25.80;89.00;;;;;;5007563;28;20022;-75
2023/06/27 10:12:39;;;;;;;33.72;31.42;;;25.70;90.50;;;;;;5008382;28;20045;-75
2023/06/27 10:15:08;;;;;;;40.30;37.88;;;25.80;90.40;;;;;;5008389;28;20033;-75
2023/06/27 10:17:34;;;;;;;38.10;35.67;;;26.00;90.00;;;;;;5008253;28;20041;-75
2023/06/27 10:20:02;;;;;;;45.63;42.78;;;26.20;90.20;;;;;;5008343;28;20050;-75
2023/06/27 10:22:30;;;;;;;54.90;51.15;;;26.20;88.80;;;;;;5008140;28;20386;-76
2023/06/27 10:25:00;;;;;;;54.53;51.15;;;26.30;88.60;;;;;;4991684;28;20038;-75
2023/06/27 10:27:26;;;;;;;52.92;49.78;;;26.20;87.40;;;;;;5007776;28;20356;-75
2023/06/27 10:29:52;;;;;;;45.92;43.10;;;26.00;88.10;;;;;;5008515;28;20403;-75
2023/06/27 10:32:19;;;;;;;45.70;43.03;;;26.00;88.70;;;;;;4991266;28;20049;-75
2023/06/27 10:34:45;;;;;;;37.88;35.70;;;25.80;88.20;;;;;;5008572;28;20403;-75
2023/06/27 10:37:18;;;;;;;38.28;35.75;;;25.80;90.00;;;;;;4992914;28;20038;-75
2023/06/27 10:39:55;;;;;;;43.92;40.95;;;26.00;90.30;;;;;;5001062;28;20038;-75
2023/06/27 10:42:21;;;;;;;51.63;48.45;;;26.20;89.60;;;;;;5006561;28;20033;-74
2023/06/27 10:45:07;;;;;;;54.35;50.95;;;26.40;88.20;;;;;;4993164;28;20053;-75
2023/06/27 10:47:43;;;;;;;48.30;45.35;;;26.00;87.40;;;;;;5026393;28;20495;-75
2023/06/27 10:50:16;;;;;;;55.22;52.08;;;25.80;89.00;;;;;;4996436;28;20406;-76
2023/06/27 10:53:01;;;;;;;50.33;47.17;;;25.90;87.30;;;;;;5028408;28;20033;-76
2023/06/27 10:55:28;;;;;;;48.50;45.60;;;25.70;88.50;;;;;;5011176;28;20034;-75
2023/06/27 10:58:10;;;;;;;45.53;42.67;;;25.70;88.80;;;;;;5011216;28;20040;-75
2023/06/27 11:00:45;;;;;;;48.22;45.13;;;25.80;89.50;;;;;;5010812;28;20117;-75
2023/06/27 11:03:11;;;;;;;56.05;53.00;;;25.90;88.10;;;;;;5011283;28;20030;-75
2023/06/27 11:05:40;;;;;;;58.67;55.35;;;25.80;86.70;;;;;;5012254;28;20030;-75
2023/06/27 11:08:09;;;;;;;66.75;62.88;;;25.90;86.30;;;;;;5011379;28;20026;-75
2023/06/27 11:10:36;;;;;;;70.18;66.32;;;25.90;85.20;;;;;;5011979;28;20033;-75
2023/06/27 11:13:15;;;;;;;62.30;58.70;;;25.80;83.20;;;;;;5011282;28;20022;-75
2023/06/27 11:15:45;;;;;;;71.95;68.07;;;25.80;84.30;;;;;;5010590;28;20399;-75
2023/06/27 11:18:18;;;;;;;68.13;64.30;;;25.90;83.50;;;;;;5011115;28;20018;-75
2023/06/27 11:20:44;;;;;;;60.03;56.53;;;25.80;82.60;;;;;;5011936;28;20054;-75
2023/06/27 11:23:12;;;;;;;75.38;71.25;;;25.80;83.70;;;;;;5015181;28;20022;-75
2023/06/27 11:25:38;;;;;;;74.88;70.75;;;25.90;81.20;;;;;;5014703;28;20387;-75
2023/06/27 11:28:05;;;;;;;66.63;63.03;;;25.90;82.20;;;;;;5015224;28;20049;-75
2023/06/27 11:30:33;;;;;;;68.80;65.10;;;25.80;82.70;;;;;;5014381;28;20029;-75
2023/06/27 11:33:00;;;;;;;64.82;61.33;;;25.80;82.40;;;;;;5015053;28;20101;-75
2023/06/27 11:35:28;;;;;;;69.45;65.45;;;25.90;82.80;;;;;;5016343;28;20038;-75
2023/06/27 11:37:54;;;;;;;67.68;64.15;;;26.00;82.00;;;;;;5047748;28;20073;-75
2023/06/27 11:40:24;;;;;;;71.18;67.45;;;26.10;82.50;;;;;;5044985;28;20421;-72
2023/06/27 11:42:51;;;;;;;77.00;72.78;;;26.30;82.80;;;;;;5015100;28;20032;-72
2023/06/27 11:45:17;;;;;;;84.78;80.40;;;26.40;80.90;;;;;;5015311;28;20482;-73
2023/06/27 11:47:44;;;;;;;72.32;68.45;;;26.50;80.80;;;;;;5014805;28;20037;-72
2023/06/27 11:50:11;;;;;;;63.95;60.53;;;26.60;81.70;;;;;;5014496;28;20050;-73
2023/06/27 11:52:37;;;;;;;66.15;62.70;;;26.50;83.00;;;;;;5015809;28;20026;-73
2023/06/27 11:55:05;;;;;;;61.10;57.88;;;26.70;83.70;;;;;;5015767;28;20475;-73
2023/06/27 11:57:44;;;;;;;56.28;53.17;;;26.80;84.10;;;;;;5015581;28;20048;-75
2023/06/27 12:00:31;;;;;;;69.35;65.53;;;27.00;85.60;;;;;;5014974;28;20060;-75
2023/06/27 12:03:03;;;;;;;58.53;54.70;;;27.20;84.00;;;;;;5015720;28;20026;-72
2023/06/27 12:05:29;;;;;;;67.63;63.72;;;27.20;85.70;;;;;;5014266;28;20814;-73
2023/06/27 12:08:05;;;;;;;85.90;81.22;;;27.20;83.70;;;;;;5014375;28;20033;-73
2023/06/27 12:10:56;;;;;;;61.47;57.88;;;27.10;80.60;;;;;;5014955;28;20030;-72
2023/06/27 12:13:33;;;;;;;62.58;59.25;;;27.20;84.70;;;;;;5015714;28;20378;-72
2023/06/27 12:15:59;;;;;;;63.85;60.35;;;27.60;84.80;;;;;;5014743;28;20525;-72
2023/06/27 12:18:30;;;;;;;72.10;68.15;;;27.80;84.00;;;;;;5014238;28;20041;-72
2023/06/27 12:20:57;;;;;;;67.43;63.75;;;27.70;82.90;;;;;;5014218;28;20386;-73
2023/06/27 12:23:25;;;;;;;86.57;82.18;;;27.70;83.70;;;;;;5013780;28;20025;-73
2023/06/27 12:25:51;;;;;;;73.07;68.95;;;27.70;81.40;;;;;;5015077;28;20030;-72
2023/06/27 12:28:17;;;;;;;86.35;81.80;;;27.70;83.90;;;;;;5014311;28;20394;-73
2023/06/27 12:30:44;;;;;;;78.38;74.07;;;27.80;83.30;;;;;;5008850;28;20042;-73